createdAt,value
2022-09-23T00:01:19.799Z,11.38
2022-09-23T00:03:50.011Z,11.35
2022-09-23T00:06:20.871Z,11.37
2022-09-23T00:08:49.745Z,11.37
2022-09-23T00:11:28.513Z,11.34
2022-09-23T00:13:59.818Z,11.30
2022-09-23T00:16:32.497Z,11.28
2022-09-23T00:19:04.615Z,11.25
2022-09-23T00:21:31.798Z,11.21
2022-09-23T00:23:59.046Z,11.18
2022-09-23T00:26:27.577Z,11.16
2022-09-23T00:28:54.778Z,11.15
2022-09-23T00:31:26.189Z,11.09
2022-09-23T00:33:59.080Z,11.06
2022-09-23T00:36:32.219Z,11.03
2022-09-23T00:39:00.031Z,11.01
2022-09-23T00:41:27.700Z,10.98
2022-09-23T00:44:01.538Z,10.96
2022-09-23T00:46:31.070Z,10.93
2022-09-23T00:49:07.407Z,10.92
2022-09-23T00:51:44.257Z,10.89
2022-09-23T00:54:11.649Z,10.90
2022-09-23T00:56:39.653Z,10.88
2022-09-23T00:59:09.743Z,10.86
2022-09-23T01:01:39.096Z,10.83
2022-09-23T01:04:08.149Z,10.80
2022-09-23T01:06:35.586Z,10.79
2022-09-23T01:09:03.116Z,10.76
2022-09-23T01:11:43.188Z,10.72
2022-09-23T01:14:49.749Z,10.67
2022-09-23T01:17:58.267Z,10.67
2022-09-23T01:21:02.423Z,10.63
2022-09-23T01:24:05.090Z,10.59
2022-09-23T01:27:09.673Z,10.55
2022-09-23T01:30:27.348Z,10.51
2022-09-23T01:33:23.280Z,10.46
2022-09-23T01:36:48.996Z,10.44
2022-09-23T01:39:26.472Z,10.42
2022-09-23T01:42:22.604Z,10.41
2022-09-23T01:45:34.012Z,10.38
2022-09-23T01:48:18.366Z,10.36
2022-09-23T01:51:14.734Z,10.34
2022-09-23T01:54:26.234Z,10.33
2022-09-23T01:57:02.920Z,10.31
2022-09-23T01:59:33.031Z,10.30
2022-09-23T02:02:31.648Z,10.30
2022-09-23T02:05:11.145Z,10.29
2022-09-23T02:07:52.030Z,10.27
2022-09-23T02:10:37.469Z,10.26
2022-09-23T02:13:15.664Z,10.23
2022-09-23T02:15:50.999Z,10.19
2022-09-23T02:18:42.076Z,10.19
2022-09-23T02:21:11.390Z,10.16
2022-09-23T02:23:50.582Z,10.17
2022-09-23T02:26:52.204Z,10.15
2022-09-23T02:29:49.550Z,10.16
2022-09-23T02:32:48.964Z,10.15
2022-09-23T02:35:49.750Z,10.14
2022-09-23T02:38:35.125Z,10.14
2022-09-23T02:41:16.029Z,10.13
2022-09-23T02:44:02.327Z,10.13
2022-09-23T02:46:30.344Z,10.12
2022-09-23T02:49:05.734Z,10.11
2022-09-23T02:51:37.747Z,10.08
2022-09-23T02:54:15.734Z,10.04
2022-09-23T02:56:43.197Z,10.04
2022-09-23T02:59:12.096Z,10.00
2022-09-23T03:01:45.183Z,9.98
2022-09-23T03:04:31.773Z,9.97
2022-09-23T03:07:27.036Z,9.93
2022-09-23T03:10:34.667Z,9.93
2022-09-23T03:13:34.250Z,9.88
2022-09-23T03:16:43.711Z,9.82
2022-09-23T03:19:33.862Z,9.75
2022-09-23T03:22:10.732Z,9.72
2022-09-23T03:24:44.868Z,9.68
2022-09-23T03:27:21.985Z,9.68
2022-09-23T03:29:53.393Z,9.65
2022-09-23T03:32:24.671Z,9.61
2022-09-23T03:34:56.175Z,9.61
2022-09-23T03:37:47.215Z,9.55
2022-09-23T03:40:23.695Z,9.52
2022-09-23T03:42:51.852Z,9.49
2022-09-23T03:45:26.636Z,9.51
2022-09-23T03:47:53.872Z,9.48
2022-09-23T03:50:21.325Z,9.48
2022-09-23T03:52:50.519Z,9.45
2022-09-23T03:55:19.257Z,9.46
2022-09-23T03:57:48.852Z,9.45
2022-09-23T04:00:16.627Z,9.45
2022-09-23T04:02:44.265Z,9.44
2022-09-23T04:05:13.297Z,9.44
2022-09-23T04:07:41.094Z,9.43
2022-09-23T04:10:09.966Z,9.42
2022-09-23T04:12:37.959Z,9.39
2022-09-23T04:15:06.148Z,9.37
2022-09-23T04:17:33.284Z,9.34
2022-09-23T04:20:00.552Z,9.31
2022-09-23T04:22:27.803Z,9.32
2022-09-23T04:24:54.941Z,9.31
2022-09-23T04:27:22.152Z,9.30
2022-09-23T04:29:49.236Z,9.31
2022-09-23T04:32:16.497Z,9.32
2022-09-23T04:34:43.614Z,9.30
2022-09-23T04:37:10.778Z,9.29
2022-09-23T04:39:37.921Z,9.29
2022-09-23T04:42:05.171Z,9.29
2022-09-23T04:44:33.255Z,9.27
2022-09-23T04:47:00.527Z,9.26
2022-09-23T04:49:27.684Z,9.26
2022-09-23T04:51:55.284Z,9.27
2022-09-23T04:54:22.475Z,9.25
2022-09-23T04:56:49.784Z,9.26
2022-09-23T04:59:16.950Z,9.25
2022-09-23T05:01:44.205Z,9.26
2022-09-23T05:04:13.356Z,9.26
2022-09-23T05:06:40.793Z,9.29
2022-09-23T05:09:08.736Z,9.28
2022-09-23T05:11:36.089Z,9.30
2022-09-23T05:14:03.498Z,9.31
2022-09-23T05:16:30.826Z,9.30
2022-09-23T05:18:58.393Z,9.29
2022-09-23T05:21:28.927Z,9.29
2022-09-23T05:24:00.470Z,9.30
2022-09-23T05:26:30.619Z,9.30
2022-09-23T05:28:58.470Z,9.31
2022-09-23T05:31:28.850Z,9.31
2022-09-23T05:34:02.138Z,9.32
2022-09-23T05:36:37.545Z,9.33
2022-09-23T05:39:07.946Z,9.33
2022-09-23T05:41:36.049Z,9.36
2022-09-23T05:44:03.430Z,9.38
2022-09-23T05:46:32.036Z,9.39
2022-09-23T05:49:02.981Z,9.40
2022-09-23T05:51:32.352Z,9.42
2022-09-23T05:54:02.840Z,9.44
2022-09-23T05:56:31.965Z,9.48
2022-09-23T05:59:01.426Z,9.49
2022-09-23T06:01:33.627Z,9.50
2022-09-23T06:04:03.663Z,9.54
2022-09-23T06:06:40.183Z,9.54
2022-09-23T06:09:13.444Z,9.57
2022-09-23T06:11:41.610Z,9.59
2022-09-23T06:14:14.856Z,9.62
2022-09-23T06:16:43.056Z,9.65
2022-09-23T06:19:10.524Z,9.66
2022-09-23T06:21:40.493Z,9.69
2022-09-23T06:24:09.289Z,9.72
2022-09-23T06:26:38.164Z,9.75
2022-09-23T06:29:14.619Z,9.77
2022-09-23T06:31:42.046Z,9.80
2022-09-23T06:34:14.563Z,9.83
2022-09-23T06:36:45.539Z,9.84
2022-09-23T06:39:16.827Z,9.87
2022-09-23T06:41:45.329Z,9.92
2022-09-23T06:44:14.211Z,9.95
2022-09-23T06:46:41.726Z,9.99
2022-09-23T06:49:09.175Z,10.02
2022-09-23T06:51:36.731Z,10.03
2022-09-23T06:54:04.121Z,10.08
2022-09-23T06:56:34.840Z,10.13
2022-09-23T06:59:05.785Z,10.16
2022-09-23T07:01:34.395Z,10.20
2022-09-23T07:04:01.971Z,10.25
2022-09-23T07:06:29.180Z,10.29
2022-09-23T07:08:56.379Z,10.32
2022-09-23T07:11:23.539Z,10.37
2022-09-23T07:13:51.063Z,10.42
2022-09-23T07:16:18.456Z,10.46
2022-09-23T07:18:45.764Z,10.50
2022-09-23T07:21:19.035Z,10.56
2022-09-23T07:23:52.581Z,10.61
2022-09-23T07:26:22.762Z,10.66
2022-09-23T07:28:55.486Z,10.73
2022-09-23T07:31:36.497Z,10.76
2022-09-23T07:34:06.293Z,10.83
2022-09-23T07:36:33.558Z,10.88
2022-09-23T07:39:03.857Z,10.92
2022-09-23T07:41:32.797Z,10.98
2022-09-23T07:44:01.121Z,11.03
2022-09-23T07:46:32.824Z,11.08
2022-09-23T07:49:01.951Z,11.11
2022-09-23T07:51:36.881Z,11.17
2022-09-23T07:54:16.215Z,11.26
2022-09-23T07:56:45.066Z,11.33
2022-09-23T07:59:18.590Z,11.41
2022-09-23T08:01:50.742Z,11.47
2022-09-23T08:04:30.177Z,11.53
2022-09-23T08:07:02.494Z,11.60
2022-09-23T08:09:41.591Z,11.68
2022-09-23T08:12:16.668Z,11.76
2022-09-23T08:14:43.955Z,11.85
2022-09-23T08:17:14.481Z,11.93
2022-09-23T08:19:41.710Z,11.98
2022-09-23T08:22:08.851Z,12.02
2022-09-23T08:24:35.979Z,12.07
2022-09-23T08:27:03.359Z,12.12
2022-09-23T08:29:30.477Z,12.19
2022-09-23T08:31:57.747Z,12.25
2022-09-23T08:34:28.110Z,12.32
2022-09-23T08:36:55.229Z,12.41
2022-09-23T08:39:23.163Z,12.49
2022-09-23T08:42:27.916Z,12.58
2022-09-23T08:44:59.007Z,12.66
2022-09-23T08:47:43.811Z,12.73
2022-09-23T08:50:19.244Z,12.82
2022-09-23T08:52:58.645Z,12.87
2022-09-23T08:55:46.014Z,12.96
2022-09-23T08:58:50.403Z,13.06
2022-09-23T09:01:36.600Z,13.16
2022-09-23T09:04:15.007Z,13.26
2022-09-23T09:07:31.915Z,13.35
2022-09-23T09:10:18.798Z,13.44
2022-09-23T09:13:07.530Z,13.53
2022-09-23T09:15:57.276Z,13.61
2022-09-23T09:18:26.260Z,13.73
2022-09-23T09:21:09.938Z,13.83
2022-09-23T09:23:56.555Z,13.96
2022-09-23T09:26:29.560Z,14.08
2022-09-23T09:29:34.236Z,14.18
2022-09-23T09:32:33.729Z,14.26
2022-09-23T09:35:17.171Z,14.39
2022-09-23T09:37:47.849Z,14.51
2022-09-23T09:40:17.303Z,14.61
2022-09-23T09:42:49.824Z,14.67
2022-09-23T09:45:35.141Z,14.81
2022-09-23T09:48:37.784Z,14.92
2022-09-23T09:51:27.766Z,15.01
2022-09-23T09:54:15.186Z,15.12
2022-09-23T09:56:44.478Z,15.24
2022-09-23T09:59:21.609Z,15.25
2022-09-23T10:01:49.301Z,15.33
2022-09-23T10:04:19.401Z,15.44
2022-09-23T10:07:12.456Z,15.55
2022-09-23T10:09:47.592Z,15.69
2022-09-23T10:12:26.238Z,15.81
2022-09-23T10:14:57.921Z,15.90
2022-09-23T10:17:34.011Z,15.98
2022-09-23T10:20:15.057Z,16.08
2022-09-23T10:22:43.283Z,16.15
2022-09-23T10:25:26.777Z,16.24
2022-09-23T10:27:53.941Z,16.34
2022-09-23T10:30:26.664Z,16.45
2022-09-23T10:32:56.990Z,16.52
2022-09-23T10:35:25.564Z,16.63
2022-09-23T10:37:57.864Z,16.73
2022-09-23T10:40:57.076Z,16.82
2022-09-23T10:44:04.447Z,16.95
2022-09-23T10:46:47.487Z,16.98
2022-09-23T10:49:55.978Z,17.05
2022-09-23T10:52:25.786Z,17.10
2022-09-23T10:55:29.677Z,17.14
2022-09-23T10:58:43.965Z,17.23
2022-09-23T11:01:29.609Z,17.25
2022-09-23T11:04:12.187Z,17.26
2022-09-23T11:07:02.574Z,17.27
2022-09-23T11:10:03.500Z,17.35
2022-09-23T11:12:58.494Z,17.39
2022-09-23T11:15:49.444Z,17.45
2022-09-23T11:18:23.501Z,17.50
2022-09-23T11:21:45.529Z,17.53
2022-09-23T11:24:31.215Z,17.54
2022-09-23T11:27:28.170Z,17.55
2022-09-23T11:30:18.017Z,17.59
2022-09-23T11:33:15.032Z,17.68
2022-09-23T11:35:53.357Z,17.76
2022-09-23T11:38:27.586Z,17.82
2022-09-23T11:41:12.288Z,17.88
2022-09-23T11:43:43.867Z,17.95
2022-09-23T11:46:28.336Z,18.01
2022-09-23T11:49:23.143Z,18.04
2022-09-23T11:52:11.889Z,18.07
2022-09-23T11:55:22.366Z,18.14
2022-09-23T11:58:24.415Z,18.18
2022-09-23T12:01:03.200Z,18.25
2022-09-23T12:03:55.570Z,18.30
2022-09-23T12:06:47.443Z,18.38
2022-09-23T12:09:47.069Z,18.42
2022-09-23T12:12:56.029Z,18.51
2022-09-23T12:15:57.697Z,18.52
2022-09-23T12:18:45.826Z,18.55
2022-09-23T12:21:48.816Z,18.56
2022-09-23T12:24:46.937Z,18.58
2022-09-23T12:27:33.935Z,18.59
2022-09-23T12:30:14.775Z,18.60
2022-09-23T12:32:43.063Z,18.56
2022-09-23T12:35:37.707Z,18.55
2022-09-23T12:38:14.970Z,18.54
2022-09-23T12:40:44.719Z,18.57
2022-09-23T12:43:34.856Z,18.59
2022-09-23T12:46:27.236Z,18.62
2022-09-23T12:48:58.025Z,18.62
2022-09-23T12:51:31.112Z,18.59
2022-09-23T12:54:04.217Z,18.56
2022-09-23T12:56:31.367Z,18.58
2022-09-23T12:59:10.213Z,18.61
2022-09-23T13:01:38.876Z,18.66
2022-09-23T13:04:25.218Z,18.72
2022-09-23T13:07:09.394Z,18.79
2022-09-23T13:09:43.341Z,18.77
2022-09-23T13:12:29.672Z,18.80
2022-09-23T13:15:03.603Z,18.76
2022-09-23T13:17:38.069Z,18.72
2022-09-23T13:20:38.323Z,18.69
2022-09-23T13:23:27.954Z,18.69
2022-09-23T13:26:09.001Z,18.68
2022-09-23T13:28:57.236Z,18.68
2022-09-23T13:31:24.530Z,18.65
2022-09-23T13:33:59.726Z,18.64
2022-09-23T13:36:27.020Z,18.66
2022-09-23T13:39:15.031Z,18.67
2022-09-23T13:41:45.837Z,18.70
2022-09-23T13:44:20.815Z,18.71
2022-09-23T13:46:55.231Z,18.72
2022-09-23T13:49:28.384Z,18.75
2022-09-23T13:51:57.368Z,18.75
2022-09-23T13:54:46.894Z,18.74
2022-09-23T13:57:36.198Z,18.66
2022-09-23T14:00:21.313Z,18.61
2022-09-23T14:02:48.542Z,18.54
2022-09-23T14:05:26.240Z,18.47
2022-09-23T14:07:56.279Z,18.40
2022-09-23T14:10:25.038Z,18.35
2022-09-23T14:12:53.975Z,18.30
2022-09-23T14:15:22.562Z,18.24
2022-09-23T14:18:07.422Z,18.21
2022-09-23T14:20:45.392Z,18.18
2022-09-23T14:23:14.728Z,18.11
2022-09-23T14:25:44.682Z,18.08
2022-09-23T14:28:22.759Z,18.04
2022-09-23T14:30:57.518Z,18.00
2022-09-23T14:33:33.076Z,17.99
2022-09-23T14:36:09.428Z,17.94
2022-09-23T14:38:51.648Z,17.93
2022-09-23T14:41:25.706Z,17.87
2022-09-23T14:44:01.817Z,17.86
2022-09-23T14:46:36.797Z,17.82
2022-09-23T14:49:17.648Z,17.77
2022-09-23T14:52:06.903Z,17.74
2022-09-23T14:54:46.868Z,17.71
2022-09-23T14:57:23.380Z,17.69
2022-09-23T15:00:18.709Z,17.69
2022-09-23T15:03:01.487Z,17.68
2022-09-23T15:05:47.891Z,17.65
2022-09-23T15:08:23.020Z,17.64
2022-09-23T15:10:50.526Z,17.65
2022-09-23T15:13:32.406Z,17.64
2022-09-23T15:16:01.837Z,17.62
2022-09-23T15:18:54.516Z,17.62
2022-09-23T15:21:23.280Z,17.61
2022-09-23T15:23:57.347Z,17.60
2022-09-23T15:26:48.243Z,17.58
2022-09-23T15:29:16.018Z,17.58
2022-09-23T15:31:43.203Z,17.58
2022-09-23T15:34:11.019Z,17.55
2022-09-23T15:36:38.606Z,17.53
2022-09-23T15:39:10.569Z,17.50
2022-09-23T15:41:37.804Z,17.46
2022-09-23T15:44:29.462Z,17.44
2022-09-23T15:46:59.973Z,17.42
2022-09-23T15:49:34.261Z,17.34
2022-09-23T15:52:03.893Z,17.22
2022-09-23T15:54:35.236Z,17.11
2022-09-23T15:57:02.619Z,17.06
2022-09-23T15:59:31.102Z,17.04
2022-09-23T16:02:04.209Z,17.02
2022-09-23T16:04:31.695Z,17.00
2022-09-23T16:06:59.146Z,17.00
2022-09-23T16:09:30.739Z,17.01
2022-09-23T16:11:57.854Z,17.00
2022-09-23T16:14:25.004Z,16.98
2022-09-23T16:16:52.208Z,16.95
2022-09-23T16:19:19.464Z,16.92
2022-09-23T16:21:46.654Z,16.89
2022-09-23T16:24:18.722Z,16.85
2022-09-23T16:26:48.578Z,16.82
2022-09-23T16:29:15.991Z,16.80
2022-09-23T16:31:43.386Z,16.76
2022-09-23T16:34:10.609Z,16.75
2022-09-23T16:36:43.228Z,16.73
2022-09-23T16:39:13.373Z,16.72
2022-09-23T16:41:43.523Z,16.71
2022-09-23T16:44:12.445Z,16.70
2022-09-23T16:46:42.733Z,16.69
2022-09-23T16:49:12.873Z,16.69
2022-09-23T16:51:40.226Z,16.66
2022-09-23T16:54:11.587Z,16.66
2022-09-23T16:56:46.396Z,16.65
2022-09-23T16:59:15.227Z,16.66
2022-09-23T17:02:01.667Z,16.63
2022-09-23T17:04:28.993Z,16.59
2022-09-23T17:06:56.553Z,16.55
2022-09-23T17:09:28.177Z,16.50
2022-09-23T17:12:24.273Z,16.44
2022-09-23T17:14:52.482Z,16.36
2022-09-23T17:17:19.653Z,16.25
2022-09-23T17:19:46.787Z,16.11
2022-09-23T17:22:14.277Z,15.95
2022-09-23T17:24:41.430Z,15.83
2022-09-23T17:27:11.751Z,15.72
2022-09-23T17:29:38.853Z,15.63
2022-09-23T17:32:06.295Z,15.58
2022-09-23T17:34:33.507Z,15.58
2022-09-23T17:37:00.927Z,15.57
2022-09-23T17:39:28.215Z,15.59
2022-09-23T17:41:57.270Z,15.61
2022-09-23T17:44:24.538Z,15.65
2022-09-23T17:46:52.139Z,15.68
2022-09-23T17:49:19.390Z,15.70
2022-09-23T17:51:48.917Z,15.70
2022-09-23T17:54:16.199Z,15.73
2022-09-23T17:56:43.503Z,15.76
2022-09-23T17:59:12.625Z,15.76
2022-09-23T18:01:39.966Z,15.77
2022-09-23T18:04:07.358Z,15.77
2022-09-23T18:06:37.474Z,15.76
2022-09-23T18:09:07.211Z,15.76
2022-09-23T18:11:40.712Z,15.76
2022-09-23T18:14:21.945Z,15.76
2022-09-23T18:16:53.981Z,15.76
2022-09-23T18:19:24.378Z,15.76
2022-09-23T18:21:56.101Z,15.75
2022-09-23T18:24:33.041Z,15.73
2022-09-23T18:27:01.558Z,15.73
2022-09-23T18:29:29.273Z,15.71
2022-09-23T18:31:56.508Z,15.70
2022-09-23T18:34:24.463Z,15.69
2022-09-23T18:36:51.722Z,15.67
2022-09-23T18:39:18.894Z,15.65
2022-09-23T18:41:46.091Z,15.64
2022-09-23T18:44:16.912Z,15.62
2022-09-23T18:46:44.837Z,15.60
2022-09-23T18:49:30.587Z,15.55
2022-09-23T18:51:58.523Z,15.47
2022-09-23T18:54:28.787Z,15.40
2022-09-23T18:56:56.778Z,15.32
2022-09-23T18:59:27.941Z,15.27
2022-09-23T19:01:56.079Z,15.21
2022-09-23T19:04:26.021Z,15.18
2022-09-23T19:06:56.341Z,15.18
2022-09-23T19:09:24.002Z,15.18
2022-09-23T19:11:52.529Z,15.18
2022-09-23T19:14:20.029Z,15.18
2022-09-23T19:16:50.809Z,15.18
2022-09-23T19:19:21.140Z,15.17
2022-09-23T19:21:48.275Z,15.15
2022-09-23T19:24:20.485Z,15.11
2022-09-23T19:26:50.377Z,15.03
2022-09-23T19:29:21.910Z,14.94
2022-09-23T19:31:50.065Z,14.82
2022-09-23T19:34:28.936Z,14.70
2022-09-23T19:36:57.695Z,14.60
2022-09-23T19:39:28.543Z,14.50
2022-09-23T19:41:56.000Z,14.43
2022-09-23T19:44:25.267Z,14.34
2022-09-23T19:46:56.473Z,14.27
2022-09-23T19:49:25.251Z,14.20
2022-09-23T19:51:55.493Z,14.16
2022-09-23T19:54:26.883Z,14.12
2022-09-23T19:56:54.205Z,14.08
2022-09-23T19:59:21.420Z,14.00
2022-09-23T20:01:49.265Z,13.93
2022-09-23T20:04:17.068Z,13.86
2022-09-23T20:06:45.883Z,13.80
2022-09-23T20:09:13.388Z,13.78
2022-09-23T20:11:42.878Z,13.74
2022-09-23T20:14:11.054Z,13.73
2022-09-23T20:16:38.293Z,13.71
2022-09-23T20:19:06.145Z,13.70
2022-09-23T20:21:34.336Z,13.68
2022-09-23T20:24:05.199Z,13.66
2022-09-23T20:26:51.189Z,13.64
2022-09-23T20:29:18.357Z,13.64
2022-09-23T20:31:45.797Z,13.60
2022-09-23T20:34:12.945Z,13.59
2022-09-23T20:36:41.306Z,13.53
2022-09-23T20:39:10.086Z,13.55
2022-09-23T20:41:39.186Z,13.56
2022-09-23T20:44:12.562Z,13.58
2022-09-23T20:46:48.186Z,13.60
2022-09-23T20:49:20.914Z,13.62
2022-09-23T20:51:49.061Z,13.65
2022-09-23T20:54:19.212Z,13.64
2022-09-23T20:56:47.701Z,13.65
2022-09-23T20:59:15.056Z,13.65
2022-09-23T21:01:42.357Z,13.63
2022-09-23T21:04:09.813Z,13.63
2022-09-23T21:06:37.969Z,13.62
2022-09-23T21:09:06.762Z,13.62
2022-09-23T21:11:34.246Z,13.63
2022-09-23T21:14:02.151Z,13.63
2022-09-23T21:16:30.088Z,13.65
2022-09-23T21:18:58.212Z,13.64
2022-09-23T21:21:26.017Z,13.60
2022-09-23T21:23:53.239Z,13.59
2022-09-23T21:26:25.794Z,13.58
2022-09-23T21:28:59.673Z,13.56
2022-09-23T21:31:38.618Z,13.54
2022-09-23T21:34:09.099Z,13.51
2022-09-23T21:36:42.807Z,13.49
2022-09-23T21:39:11.648Z,13.49
2022-09-23T21:41:39.737Z,13.45
2022-09-23T21:44:09.520Z,13.43
2022-09-23T21:46:37.008Z,13.44
2022-09-23T21:49:05.223Z,13.46
2022-09-23T21:51:38.594Z,13.45
2022-09-23T21:54:10.889Z,13.47
2022-09-23T21:56:38.123Z,13.47
2022-09-23T21:59:07.684Z,13.50
2022-09-23T22:01:38.473Z,13.48
2022-09-23T22:04:18.924Z,13.43
2022-09-23T22:06:48.765Z,13.47
2022-09-23T22:09:19.487Z,13.43
2022-09-23T22:12:07.603Z,13.41
2022-09-23T22:14:34.865Z,13.35
2022-09-23T22:17:05.393Z,13.30
2022-09-23T22:19:40.194Z,13.25
2022-09-23T22:22:15.377Z,13.22
2022-09-23T22:24:44.370Z,13.18
2022-09-23T22:27:16.937Z,13.13
2022-09-23T22:30:02.526Z,13.07
2022-09-23T22:32:41.606Z,13.02
2022-09-23T22:35:17.668Z,12.96
2022-09-23T22:37:45.938Z,12.93
2022-09-23T22:40:15.340Z,12.91
2022-09-23T22:42:43.755Z,12.88
2022-09-23T22:45:12.195Z,12.88
2022-09-23T22:47:45.061Z,12.86
2022-09-23T22:50:14.641Z,12.85
2022-09-23T22:52:41.880Z,12.84
2022-09-23T22:55:09.550Z,12.82
2022-09-23T22:57:37.084Z,12.82
2022-09-23T23:00:09.430Z,12.79
2022-09-23T23:02:36.775Z,12.79
2022-09-23T23:05:04.212Z,12.77
2022-09-23T23:07:34.910Z,12.78
2022-09-23T23:10:03.950Z,12.79
2022-09-23T23:12:31.163Z,12.76
2022-09-23T23:14:58.270Z,12.73
2022-09-23T23:17:25.370Z,12.72
2022-09-23T23:19:52.525Z,12.71
2022-09-23T23:22:19.618Z,12.69
2022-09-23T23:24:46.819Z,12.68
2022-09-23T23:27:13.917Z,12.66
2022-09-23T23:29:41.048Z,12.66
2022-09-23T23:32:09.765Z,12.66
2022-09-23T23:34:36.984Z,12.66
2022-09-23T23:37:04.270Z,12.66
2022-09-23T23:39:31.401Z,12.65
2022-09-23T23:41:58.528Z,12.66
2022-09-23T23:44:26.947Z,12.64
2022-09-23T23:46:55.023Z,12.63
2022-09-23T23:49:22.702Z,12.64
2022-09-23T23:51:49.917Z,12.64
2022-09-23T23:54:17.078Z,12.64
2022-09-23T23:56:44.268Z,12.64
2022-09-23T23:59:11.746Z,12.65
